createdAt,value
2023-04-30T00:00:52.446Z,12.22
2023-04-30T00:03:20.271Z,12.31
2023-04-30T00:05:51.638Z,12.33
2023-04-30T00:08:19.252Z,12.27
2023-04-30T00:10:46.907Z,12.29
2023-04-30T00:13:14.747Z,12.12
2023-04-30T00:15:42.349Z,12.16
2023-04-30T00:18:12.083Z,12.16
2023-04-30T00:20:39.899Z,12.20
2023-04-30T00:23:07.803Z,12.23
2023-04-30T00:25:36.095Z,12.17
2023-04-30T00:28:03.816Z,12.11
2023-04-30T00:30:32.018Z,12.09
2023-04-30T00:32:59.713Z,11.93
2023-04-30T00:35:28.642Z,12.06
2023-04-30T00:37:56.427Z,12.10
2023-04-30T00:40:24.125Z,12.05
2023-04-30T00:42:52.466Z,11.86
2023-04-30T00:45:22.029Z,11.62
2023-04-30T00:47:49.870Z,11.52
2023-04-30T00:50:17.587Z,11.48
2023-04-30T00:52:46.988Z,11.37
2023-04-30T00:55:16.840Z,11.19
2023-04-30T00:57:44.530Z,11.16
2023-04-30T01:00:13.826Z,11.10
2023-04-30T01:02:41.986Z,11.01
2023-04-30T01:05:10.032Z,11.07
2023-04-30T01:07:44.645Z,10.96
2023-04-30T01:10:16.861Z,10.94
2023-04-30T01:12:51.249Z,10.85
2023-04-30T01:15:25.935Z,10.78
2023-04-30T01:17:57.806Z,10.61
2023-04-30T01:20:30.241Z,10.52
2023-04-30T01:23:09.222Z,10.51
2023-04-30T01:25:54.190Z,10.65
2023-04-30T01:28:26.082Z,10.50
2023-04-30T01:30:55.532Z,10.48
2023-04-30T01:33:23.165Z,10.65
2023-04-30T01:36:03.955Z,10.57
2023-04-30T01:38:43.081Z,10.60
2023-04-30T01:41:23.797Z,10.48
2023-04-30T01:44:04.206Z,10.58
2023-04-30T01:46:32.511Z,10.64
2023-04-30T01:49:11.108Z,10.69
2023-04-30T01:51:45.505Z,10.68
2023-04-30T01:54:22.963Z,10.67
2023-04-30T01:57:05.062Z,10.60
2023-04-30T01:59:37.350Z,10.57
2023-04-30T02:02:07.551Z,10.45
2023-04-30T02:04:36.280Z,10.39
2023-04-30T02:07:04.278Z,10.44
2023-04-30T02:09:32.535Z,10.31
2023-04-30T02:12:01.182Z,10.33
2023-04-30T02:14:33.884Z,10.29
2023-04-30T02:17:01.694Z,10.23
2023-04-30T02:19:29.362Z,10.14
2023-04-30T02:21:57.187Z,10.10
2023-04-30T02:24:25.361Z,10.14
2023-04-30T02:26:53.029Z,10.12
2023-04-30T02:29:20.650Z,10.17
2023-04-30T02:31:49.888Z,10.18
2023-04-30T02:34:17.527Z,10.35
2023-04-30T02:36:45.185Z,10.24
2023-04-30T02:39:12.836Z,10.13
2023-04-30T02:41:40.461Z,10.19
2023-04-30T02:44:08.088Z,10.23
2023-04-30T02:46:35.850Z,10.26
2023-04-30T02:49:13.367Z,10.09
2023-04-30T02:51:41.364Z,10.15
2023-04-30T02:54:09.198Z,10.09
2023-04-30T02:56:37.016Z,10.16
2023-04-30T02:59:04.654Z,10.23
2023-04-30T03:01:32.452Z,10.01
2023-04-30T03:04:00.107Z,10.01
2023-04-30T03:06:29.601Z,9.99
2023-04-30T03:08:57.344Z,9.93
2023-04-30T03:11:25.277Z,10.01
2023-04-30T03:13:53.178Z,10.14
2023-04-30T03:16:21.896Z,10.03
2023-04-30T03:18:50.250Z,10.03
2023-04-30T03:21:18.054Z,9.97
2023-04-30T03:23:47.564Z,10.05
2023-04-30T03:26:15.278Z,10.06
2023-04-30T03:28:42.930Z,10.16
2023-04-30T03:31:10.713Z,10.02
2023-04-30T03:33:38.382Z,10.13
2023-04-30T03:36:07.381Z,9.99
2023-04-30T03:38:35.103Z,10.06
2023-04-30T03:41:04.540Z,10.10
2023-04-30T03:43:35.187Z,10.11
2023-04-30T03:46:03.098Z,10.06
2023-04-30T03:48:32.485Z,10.01
2023-04-30T03:51:00.245Z,10.04
2023-04-30T03:53:28.116Z,9.97
2023-04-30T03:55:56.103Z,9.85
2023-04-30T03:58:25.380Z,9.90
2023-04-30T04:00:53.582Z,10.04
2023-04-30T04:03:22.265Z,9.97
2023-04-30T04:05:49.917Z,9.86
2023-04-30T04:08:18.752Z,9.94
2023-04-30T04:10:49.950Z,9.75
2023-04-30T04:13:17.644Z,9.69
2023-04-30T04:15:46.839Z,9.79
2023-04-30T04:18:17.333Z,9.73
2023-04-30T04:20:45.280Z,9.71
2023-04-30T04:23:13.000Z,9.84
2023-04-30T04:25:41.573Z,9.89
2023-04-30T04:28:09.370Z,10.07
2023-04-30T04:30:37.750Z,10.15
2023-04-30T04:33:06.891Z,10.06
2023-04-30T04:35:34.880Z,9.98
2023-04-30T04:38:02.806Z,10.02
2023-04-30T04:40:31.770Z,10.12
2023-04-30T04:42:59.652Z,9.99
2023-04-30T04:45:28.651Z,10.11
2023-04-30T04:47:56.360Z,9.99
2023-04-30T04:50:25.779Z,10.43
2023-04-30T04:52:54.566Z,11.15
2023-04-30T04:55:23.197Z,11.82
2023-04-30T04:57:51.258Z,12.11
2023-04-30T05:00:22.218Z,12.00
2023-04-30T05:02:50.279Z,12.37
2023-04-30T05:05:19.818Z,12.23
2023-04-30T05:07:52.236Z,12.92
2023-04-30T05:10:19.836Z,12.98
2023-04-30T05:12:47.428Z,13.70
2023-04-30T05:15:15.026Z,13.97
2023-04-30T05:17:45.092Z,14.08
2023-04-30T05:20:13.782Z,14.34
2023-04-30T05:22:41.416Z,14.20
2023-04-30T05:25:11.435Z,13.67
2023-04-30T05:27:40.313Z,13.94
2023-04-30T05:30:12.219Z,14.10
2023-04-30T05:32:40.406Z,14.23
2023-04-30T05:35:10.370Z,15.10
2023-04-30T05:37:37.952Z,15.63
2023-04-30T05:40:07.119Z,16.29
2023-04-30T05:42:36.332Z,16.51
2023-04-30T05:45:04.172Z,17.08
2023-04-30T05:47:31.967Z,17.98
2023-04-30T05:49:59.646Z,18.19
2023-04-30T05:52:27.518Z,18.29
2023-04-30T05:54:55.114Z,18.54
2023-04-30T05:57:26.262Z,17.13
2023-04-30T05:59:55.725Z,17.01
2023-04-30T06:02:23.831Z,17.57
2023-04-30T06:04:51.817Z,18.33
2023-04-30T06:07:20.561Z,18.36
2023-04-30T06:09:48.171Z,18.57
2023-04-30T06:12:15.809Z,19.40
2023-04-30T06:14:45.492Z,19.54
2023-04-30T06:17:15.902Z,19.91
2023-04-30T06:19:43.489Z,19.87
2023-04-30T06:22:12.244Z,19.77
2023-04-30T06:24:40.005Z,18.73
2023-04-30T06:27:07.735Z,19.42
2023-04-30T06:29:35.565Z,20.57
2023-04-30T06:32:03.423Z,21.31
2023-04-30T06:34:32.723Z,20.44
2023-04-30T06:37:00.865Z,20.28
2023-04-30T06:39:28.547Z,21.14
2023-04-30T06:41:56.330Z,17.61
2023-04-30T06:44:25.442Z,19.47
2023-04-30T06:46:53.219Z,20.17
2023-04-30T06:49:20.885Z,20.00
2023-04-30T06:51:50.040Z,18.72
2023-04-30T06:54:17.633Z,20.44
2023-04-30T06:56:45.519Z,20.96
2023-04-30T06:59:13.175Z,22.40
2023-04-30T07:01:41.002Z,22.08
2023-04-30T07:04:08.875Z,22.29
2023-04-30T07:06:36.675Z,21.62
2023-04-30T07:09:05.697Z,21.12
2023-04-30T07:11:37.350Z,20.01
2023-04-30T07:14:06.261Z,19.78
2023-04-30T07:16:36.578Z,20.25
2023-04-30T07:19:06.502Z,20.42
2023-04-30T07:21:34.770Z,19.10
2023-04-30T07:24:03.633Z,20.25
2023-04-30T07:26:40.114Z,19.08
2023-04-30T07:29:10.132Z,20.70
2023-04-30T07:31:37.933Z,20.68
2023-04-30T07:34:05.770Z,20.01
2023-04-30T07:36:33.502Z,17.84
2023-04-30T07:39:01.412Z,19.75
2023-04-30T07:41:32.802Z,21.27
2023-04-30T07:44:03.226Z,21.42
2023-04-30T07:46:31.188Z,21.49
2023-04-30T07:48:59.609Z,21.76
2023-04-30T07:51:28.082Z,20.59
2023-04-30T07:53:55.954Z,20.83
2023-04-30T07:56:23.878Z,20.46
2023-04-30T07:58:53.250Z,21.15
2023-04-30T08:01:21.017Z,20.02
2023-04-30T08:03:49.963Z,20.39
2023-04-30T08:06:18.684Z,20.87
2023-04-30T08:08:50.516Z,20.26
2023-04-30T08:11:18.760Z,19.57
2023-04-30T08:13:46.763Z,17.93
2023-04-30T08:16:16.130Z,19.32
2023-04-30T08:18:44.986Z,18.79
2023-04-30T08:21:13.544Z,19.47
2023-04-30T08:23:41.266Z,20.50
2023-04-30T08:26:11.134Z,19.29
2023-04-30T08:28:38.841Z,20.00
2023-04-30T08:31:06.880Z,19.12
2023-04-30T08:33:37.088Z,17.82
2023-04-30T08:36:05.296Z,19.70
2023-04-30T08:38:32.993Z,18.80
2023-04-30T08:41:12.533Z,18.70
2023-04-30T08:43:41.106Z,19.83
2023-04-30T08:46:09.275Z,19.75
2023-04-30T08:48:38.560Z,19.44
2023-04-30T08:51:06.211Z,19.57
2023-04-30T08:53:37.864Z,18.52
2023-04-30T08:56:06.287Z,17.57
2023-04-30T08:58:34.141Z,17.73
2023-04-30T09:01:02.832Z,17.20
2023-04-30T09:03:33.386Z,16.35
2023-04-30T09:06:03.735Z,16.40
2023-04-30T09:08:49.579Z,16.38
2023-04-30T09:11:25.075Z,16.78
2023-04-30T09:13:54.723Z,16.51
2023-04-30T09:16:23.946Z,16.94
2023-04-30T09:18:52.098Z,16.92
2023-04-30T09:21:32.985Z,16.51
2023-04-30T09:24:03.079Z,16.73
2023-04-30T09:26:34.441Z,16.85
2023-04-30T09:29:10.355Z,16.86
2023-04-30T09:31:39.103Z,16.98
2023-04-30T09:34:07.449Z,16.93
2023-04-30T09:36:38.732Z,16.87
2023-04-30T09:39:14.242Z,16.99
2023-04-30T09:41:43.362Z,16.90
2023-04-30T09:44:27.590Z,17.17
2023-04-30T09:46:56.768Z,17.35
2023-04-30T09:49:24.444Z,17.54
2023-04-30T09:52:00.900Z,17.23
2023-04-30T09:54:39.670Z,17.37
2023-04-30T09:57:14.961Z,17.34
2023-04-30T09:59:50.141Z,17.21
2023-04-30T10:02:20.042Z,16.87
2023-04-30T10:04:55.021Z,17.10
2023-04-30T10:07:26.168Z,17.16
2023-04-30T10:09:59.859Z,17.27
2023-04-30T10:12:36.114Z,17.29
2023-04-30T10:15:11.611Z,17.21
2023-04-30T10:17:42.472Z,17.50
2023-04-30T10:20:11.098Z,17.47
2023-04-30T10:22:41.759Z,17.11
2023-04-30T10:25:13.843Z,17.30
2023-04-30T10:27:41.972Z,17.49
2023-04-30T10:30:11.963Z,17.47
2023-04-30T10:32:48.569Z,17.71
2023-04-30T10:35:22.021Z,17.64
2023-04-30T10:37:56.306Z,17.59
2023-04-30T10:40:24.139Z,17.72
2023-04-30T10:42:55.565Z,17.48
2023-04-30T10:45:36.623Z,17.38
2023-04-30T10:48:04.663Z,17.34
2023-04-30T10:50:32.643Z,17.43
2023-04-30T10:53:05.287Z,17.85
2023-04-30T10:55:33.726Z,17.95
2023-04-30T10:58:02.529Z,17.93
2023-04-30T11:00:31.878Z,17.57
2023-04-30T11:03:04.806Z,17.60
2023-04-30T11:05:39.331Z,17.74
2023-04-30T11:08:12.655Z,17.93
2023-04-30T11:10:58.850Z,18.01
2023-04-30T11:13:27.835Z,17.61
2023-04-30T11:15:55.933Z,17.44
2023-04-30T11:18:25.123Z,17.34
2023-04-30T11:20:53.997Z,17.41
2023-04-30T11:23:38.433Z,17.67
2023-04-30T11:26:08.941Z,18.09
2023-04-30T11:28:38.184Z,17.99
2023-04-30T11:31:06.788Z,18.09
2023-04-30T11:33:36.210Z,18.41
2023-04-30T11:36:04.050Z,18.50
2023-04-30T11:38:36.171Z,18.32
2023-04-30T11:41:12.840Z,18.69
2023-04-30T11:43:41.375Z,18.54
2023-04-30T11:46:11.452Z,18.33
2023-04-30T11:48:40.592Z,18.47
2023-04-30T11:51:16.079Z,19.00
2023-04-30T11:53:48.111Z,19.08
2023-04-30T11:56:18.844Z,19.39
2023-04-30T11:58:48.968Z,18.76
2023-04-30T12:01:17.525Z,19.20
2023-04-30T12:06:40.890Z,19.80
2023-04-30T12:09:11.738Z,19.19
2023-04-30T12:11:42.587Z,18.73
2023-04-30T12:14:16.109Z,18.91
2023-04-30T12:16:49.094Z,19.00
2023-04-30T12:19:20.831Z,19.40
2023-04-30T12:21:50.104Z,19.38
2023-04-30T12:24:24.363Z,18.76
2023-04-30T12:26:54.606Z,19.14
2023-04-30T12:29:25.520Z,19.70
2023-04-30T12:31:58.024Z,19.84
2023-04-30T12:34:28.341Z,19.53
2023-04-30T12:36:59.136Z,19.39
2023-04-30T12:39:34.821Z,19.27
2023-04-30T12:42:03.420Z,19.29
2023-04-30T12:44:31.209Z,19.82
2023-04-30T12:47:00.833Z,19.59
2023-04-30T12:49:31.797Z,19.68
2023-04-30T12:52:09.246Z,19.95
2023-04-30T12:54:41.572Z,19.25
2023-04-30T12:57:12.087Z,19.19
2023-04-30T12:59:40.795Z,19.17
2023-04-30T13:02:10.455Z,19.18
2023-04-30T13:04:38.841Z,18.66
2023-04-30T13:07:07.947Z,18.76
2023-04-30T13:09:37.872Z,18.78
2023-04-30T13:12:08.065Z,18.81
2023-04-30T13:14:36.659Z,18.81
2023-04-30T13:17:07.409Z,18.96
2023-04-30T13:19:35.268Z,18.90
2023-04-30T13:22:03.036Z,19.38
2023-04-30T13:24:31.228Z,20.08
2023-04-30T13:26:59.662Z,20.20
2023-04-30T13:29:33.213Z,19.49
2023-04-30T13:32:00.807Z,20.04
2023-04-30T13:34:28.571Z,20.15
2023-04-30T13:36:56.479Z,20.02
2023-04-30T13:39:25.091Z,19.97
2023-04-30T13:41:52.712Z,19.92
2023-04-30T13:44:20.337Z,19.94
2023-04-30T13:46:50.306Z,20.28
2023-04-30T13:49:18.136Z,20.23
2023-04-30T13:51:45.803Z,20.43
2023-04-30T13:54:13.425Z,20.37
2023-04-30T13:56:41.154Z,20.39
2023-04-30T14:01:53.597Z,20.03
2023-04-30T14:04:21.172Z,20.79
2023-04-30T14:06:49.281Z,20.61
2023-04-30T14:09:17.975Z,20.68
2023-04-30T14:11:45.827Z,20.60
2023-04-30T14:14:13.839Z,20.17
2023-04-30T14:16:42.477Z,20.13
2023-04-30T14:19:11.736Z,20.34
2023-04-30T14:21:39.435Z,19.78
2023-04-30T14:24:07.879Z,19.93
2023-04-30T14:26:35.564Z,19.84
2023-04-30T14:29:03.411Z,19.76
2023-04-30T14:31:31.349Z,19.67
2023-04-30T14:33:59.407Z,19.48
2023-04-30T14:36:29.220Z,19.36
2023-04-30T14:38:56.966Z,19.84
2023-04-30T14:41:24.643Z,20.28
2023-04-30T14:43:52.695Z,20.56
2023-04-30T14:46:20.428Z,20.85
2023-04-30T14:48:48.030Z,20.91
2023-04-30T14:51:16.605Z,20.29
2023-04-30T14:53:45.728Z,20.01
2023-04-30T14:56:13.954Z,19.67
2023-04-30T14:58:41.674Z,19.48
2023-04-30T15:01:09.922Z,19.47
2023-04-30T15:03:38.235Z,19.32
2023-04-30T15:06:06.421Z,19.54
2023-04-30T15:08:34.074Z,18.92
2023-04-30T15:11:03.859Z,19.05
2023-04-30T15:13:31.506Z,19.22
2023-04-30T15:15:59.532Z,19.19
2023-04-30T15:18:27.775Z,19.06
2023-04-30T15:20:55.637Z,19.33
2023-04-30T15:23:23.300Z,19.53
2023-04-30T15:25:51.628Z,19.70
2023-04-30T15:28:24.306Z,19.67
2023-04-30T15:30:52.440Z,19.21
2023-04-30T15:33:24.385Z,19.44
2023-04-30T15:35:52.099Z,19.43
2023-04-30T15:38:20.302Z,19.23
2023-04-30T15:40:49.285Z,19.33
2023-04-30T15:43:17.897Z,19.48
2023-04-30T15:45:50.568Z,19.53
2023-04-30T15:48:20.272Z,19.59
2023-04-30T15:50:48.521Z,19.62
2023-04-30T15:53:16.253Z,19.87
2023-04-30T15:55:44.048Z,20.11
2023-04-30T15:58:12.980Z,19.97
2023-04-30T16:00:41.367Z,19.55
2023-04-30T16:03:10.670Z,19.81
2023-04-30T16:05:40.416Z,19.67
2023-04-30T16:08:11.225Z,19.53
2023-04-30T16:10:40.018Z,19.54
2023-04-30T16:13:07.621Z,19.59
2023-04-30T16:15:36.431Z,19.38
2023-04-30T16:18:04.101Z,19.25
2023-04-30T16:20:33.335Z,19.39
2023-04-30T16:23:01.175Z,18.84
2023-04-30T16:25:29.067Z,19.11
2023-04-30T16:27:58.115Z,18.92
2023-04-30T16:30:26.860Z,18.97
2023-04-30T16:32:54.495Z,19.05
2023-04-30T16:35:27.220Z,18.83
2023-04-30T16:37:59.671Z,18.71
2023-04-30T16:40:29.057Z,18.77
2023-04-30T16:42:57.919Z,18.97
2023-04-30T16:45:26.582Z,19.03
2023-04-30T16:47:54.296Z,18.88
2023-04-30T16:50:24.198Z,19.01
2023-04-30T16:52:51.886Z,18.71
2023-04-30T16:55:23.454Z,18.98
2023-04-30T16:57:51.485Z,18.73
2023-04-30T17:00:19.546Z,18.96
2023-04-30T17:02:48.860Z,18.78
2023-04-30T17:05:16.963Z,18.89
2023-04-30T17:07:44.949Z,18.89
2023-04-30T17:10:14.875Z,18.88
2023-04-30T17:12:44.495Z,18.49
2023-04-30T17:15:12.959Z,18.38
2023-04-30T17:17:40.821Z,18.52
2023-04-30T17:20:09.167Z,18.61
2023-04-30T17:22:38.130Z,18.38
2023-04-30T17:25:10.140Z,18.28
2023-04-30T17:27:40.109Z,18.37
2023-04-30T17:30:10.476Z,18.38
2023-04-30T17:32:39.656Z,18.42
2023-04-30T17:35:12.435Z,18.29
2023-04-30T17:37:40.415Z,18.12
2023-04-30T17:40:09.845Z,18.10
2023-04-30T17:42:38.835Z,18.07
2023-04-30T17:45:07.855Z,18.16
2023-04-30T17:47:36.964Z,18.12
2023-04-30T17:50:08.342Z,17.80
2023-04-30T17:52:39.096Z,17.74
2023-04-30T17:55:08.210Z,17.66
2023-04-30T17:57:36.258Z,17.55
2023-04-30T18:00:05.374Z,17.50
2023-04-30T18:02:33.327Z,17.45
2023-04-30T18:05:06.359Z,17.33
2023-04-30T18:07:35.014Z,17.32
2023-04-30T18:10:04.165Z,17.20
2023-04-30T18:12:31.926Z,17.15
2023-04-30T18:15:00.558Z,17.09
2023-04-30T18:17:29.336Z,16.97
2023-04-30T18:19:57.281Z,16.92
2023-04-30T18:22:26.597Z,16.92
2023-04-30T18:24:55.472Z,16.85
2023-04-30T18:27:25.386Z,16.73
2023-04-30T18:30:00.798Z,16.71
2023-04-30T18:32:29.124Z,16.77
2023-04-30T18:34:56.893Z,16.68
2023-04-30T18:37:26.046Z,16.65
2023-04-30T18:39:53.751Z,16.56
2023-04-30T18:42:22.966Z,16.34
2023-04-30T18:44:52.992Z,16.45
2023-04-30T18:47:23.007Z,16.37
2023-04-30T18:49:50.906Z,16.28
2023-04-30T18:52:18.849Z,16.17
2023-04-30T18:54:47.985Z,16.13
2023-04-30T18:57:18.193Z,16.06
2023-04-30T18:59:45.918Z,15.96
2023-04-30T19:02:14.066Z,15.79
2023-04-30T19:04:44.336Z,15.76
2023-04-30T19:07:12.965Z,15.74
2023-04-30T19:09:45.146Z,15.66
2023-04-30T19:12:15.227Z,15.57
2023-04-30T19:14:44.623Z,15.58
2023-04-30T19:17:14.057Z,15.52
2023-04-30T19:19:47.174Z,15.47
2023-04-30T19:22:15.198Z,15.42
2023-04-30T19:24:43.135Z,15.32
2023-04-30T19:27:12.366Z,15.36
2023-04-30T19:29:43.200Z,15.28
2023-04-30T19:32:12.341Z,15.23
2023-04-30T19:34:40.239Z,15.21
2023-04-30T19:37:08.015Z,15.12
2023-04-30T19:39:37.040Z,15.09
2023-04-30T19:42:05.944Z,15.08
2023-04-30T19:44:33.529Z,14.98
2023-04-30T19:47:03.478Z,14.96
2023-04-30T19:49:33.643Z,15.03
2023-04-30T19:52:01.450Z,14.92
2023-04-30T19:54:30.252Z,14.88
2023-04-30T19:56:58.107Z,14.82
2023-04-30T19:59:26.829Z,14.78
2023-04-30T20:01:54.613Z,14.68
2023-04-30T20:04:24.865Z,14.69
2023-04-30T20:06:56.905Z,14.67
2023-04-30T20:09:25.025Z,14.59
2023-04-30T20:11:52.658Z,14.55
2023-04-30T20:14:22.066Z,14.67
2023-04-30T20:16:53.974Z,14.52
2023-04-30T20:19:23.360Z,14.58
2023-04-30T20:21:51.495Z,14.43
2023-04-30T20:24:21.691Z,14.34
2023-04-30T20:26:52.088Z,14.35
2023-04-30T20:29:20.664Z,14.34
2023-04-30T20:31:48.523Z,14.30
2023-04-30T20:34:16.395Z,14.21
2023-04-30T20:36:45.761Z,14.11
2023-04-30T20:39:14.451Z,14.13
2023-04-30T20:41:42.160Z,14.07
2023-04-30T20:44:10.132Z,13.98
2023-04-30T20:46:38.623Z,13.92
2023-04-30T20:49:06.220Z,13.96
2023-04-30T20:51:34.019Z,13.84
2023-04-30T20:54:03.698Z,13.80
2023-04-30T20:56:32.105Z,13.93
2023-04-30T20:59:02.354Z,13.90
2023-04-30T21:01:30.123Z,13.79
2023-04-30T21:03:58.075Z,13.83
2023-04-30T21:06:26.761Z,13.71
2023-04-30T21:08:54.705Z,13.58
2023-04-30T21:11:23.657Z,13.60
2023-04-30T21:13:53.624Z,13.51
2023-04-30T21:16:21.797Z,13.42
2023-04-30T21:18:49.559Z,13.62
2023-04-30T21:21:18.348Z,13.57
2023-04-30T21:23:48.034Z,13.56
2023-04-30T21:26:16.522Z,13.47
2023-04-30T21:28:46.855Z,13.37
2023-04-30T21:31:15.802Z,13.59
2023-04-30T21:33:43.433Z,13.49
2023-04-30T21:36:11.045Z,13.30
2023-04-30T21:38:39.033Z,13.23
2023-04-30T21:41:08.925Z,13.32
2023-04-30T21:43:37.002Z,13.47
2023-04-30T21:46:06.172Z,13.46
2023-04-30T21:48:34.570Z,13.32
2023-04-30T21:51:04.348Z,13.32
2023-04-30T21:53:34.296Z,13.48
2023-04-30T21:56:07.909Z,13.22
2023-04-30T21:58:35.927Z,13.18
2023-04-30T22:01:06.368Z,13.10
2023-04-30T22:03:47.135Z,13.24
2023-04-30T22:06:15.150Z,13.28
2023-04-30T22:08:43.012Z,13.14
2023-04-30T22:11:12.108Z,13.23
2023-04-30T22:13:39.689Z,13.15
2023-04-30T22:16:09.845Z,13.13
2023-04-30T22:18:39.700Z,13.11
2023-04-30T22:21:07.424Z,13.12
2023-04-30T22:23:35.279Z,13.08
2023-04-30T22:26:04.903Z,13.07
2023-04-30T22:28:32.632Z,13.23
2023-04-30T22:31:00.551Z,13.16
2023-04-30T22:33:28.794Z,13.12
2023-04-30T22:35:59.342Z,13.29
2023-04-30T22:38:27.007Z,13.27
2023-04-30T22:40:54.581Z,13.29
2023-04-30T22:46:04.369Z,13.35
2023-04-30T22:48:32.016Z,13.37
2023-04-30T22:51:01.253Z,13.29
2023-04-30T22:53:29.940Z,13.37
2023-04-30T22:55:58.399Z,13.37
2023-04-30T22:58:26.045Z,13.40
2023-04-30T23:00:53.822Z,13.40
2023-04-30T23:03:21.486Z,13.39
2023-04-30T23:05:51.424Z,13.29
2023-04-30T23:08:20.592Z,13.32
2023-04-30T23:10:48.857Z,13.31
2023-04-30T23:13:18.596Z,13.25
2023-04-30T23:15:46.291Z,13.10
2023-04-30T23:18:13.838Z,13.17
2023-04-30T23:20:41.783Z,13.25
2023-04-30T23:23:10.300Z,13.29
2023-04-30T23:25:39.280Z,13.29
2023-04-30T23:28:07.857Z,13.28
2023-04-30T23:30:38.683Z,13.18
2023-04-30T23:33:06.430Z,13.16
2023-04-30T23:35:34.029Z,13.17
2023-04-30T23:38:01.876Z,13.11
2023-04-30T23:40:29.575Z,13.07
2023-04-30T23:43:01.664Z,13.19
2023-04-30T23:45:29.477Z,13.16
2023-04-30T23:47:57.650Z,13.06
2023-04-30T23:50:25.954Z,12.94
2023-04-30T23:52:53.683Z,12.95
2023-04-30T23:55:21.823Z,12.97
2023-04-30T23:57:49.695Z,12.97
